Time;durP1;ratioP1;P1;durP2;ratioP2;P2;SDS_P1;SDS_P2;PMS_P1;PMS_P2;Temp;Humidity;BMP_temperature;BMP_pressure;BME280_temperature;BME280_humidity;BME280_pressure;Samples;Min_cycle;Max_cycle;Signal;HPM_P1;HPM_P2
2022/10/09 00:02:31;;;;;;;5.38;2.25;;;13.40;99.90;;;;;;10064295;28;20375;-62
2022/10/09 00:07:22;;;;;;;3.88;2.22;;;13.30;99.90;;;;;;10059777;28;20041;-61
2022/10/09 00:12:12;;;;;;;8.60;3.35;;;13.30;99.90;;;;;;10058250;28;20029;-62
2022/10/09 00:17:03;;;;;;;7.00;2.70;;;13.20;99.90;;;;;;10064814;28;20029;-60
2022/10/09 00:21:54;;;;;;;5.75;2.65;;;13.20;99.90;;;;;;10058600;28;20323;-61
2022/10/09 00:26:47;;;;;;;4.75;3.05;;;13.10;99.90;;;;;;10058650;28;20033;-62
2022/10/09 00:31:37;;;;;;;4.72;2.20;;;13.00;99.90;;;;;;10058912;28;20025;-62
2022/10/09 00:36:28;;;;;;;5.93;2.78;;;13.00;99.90;;;;;;10058294;28;20026;-60
2022/10/09 00:41:25;;;;;;;7.25;3.10;;;13.00;99.90;;;;;;10058099;28;20046;-61
2022/10/09 00:46:40;;;;;;;6.45;3.15;;;13.00;99.90;;;;;;10059760;28;20033;-61
2022/10/09 00:51:32;;;;;;;6.57;2.58;;;12.90;99.90;;;;;;10049079;28;20047;-61
2022/10/09 00:56:24;;;;;;;5.18;2.70;;;13.00;99.90;;;;;;10057715;28;20112;-61
2022/10/09 01:01:15;;;;;;;4.35;2.42;;;13.00;99.90;;;;;;10064988;28;20032;-61
2022/10/09 01:06:21;;;;;;;5.32;3.00;;;13.00;99.90;;;;;;10056142;28;20482;-60
2022/10/09 01:11:17;;;;;;;8.73;3.92;;;13.00;99.90;;;;;;10062389;28;20052;-60
2022/10/09 01:16:21;;;;;;;3.40;2.60;;;13.00;99.90;;;;;;10060009;28;20033;-61
2022/10/09 01:21:21;;;;;;;6.10;3.03;;;12.80;99.90;;;;;;10057211;28;20088;-62
2022/10/09 01:26:38;;;;;;;3.72;2.78;;;12.70;99.90;;;;;;10066926;28;20491;-62
2022/10/09 01:31:34;;;;;;;5.53;2.67;;;12.50;99.90;;;;;;10064740;28;20077;-61
2022/10/09 01:36:28;;;;;;;5.70;3.22;;;12.60;99.90;;;;;;10064801;28;20112;-61
2022/10/09 01:41:19;;;;;;;4.75;2.70;;;12.60;99.90;;;;;;10062852;28;20499;-62
2022/10/09 01:46:17;;;;;;;7.03;2.38;;;12.40;99.90;;;;;;10063201;28;20037;-61
2022/10/09 01:51:08;;;;;;;5.28;2.92;;;12.30;99.90;;;;;;10052308;28;20072;-60
2022/10/09 01:56:07;;;;;;;5.13;2.88;;;12.20;99.90;;;;;;10065309;28;20025;-64
2022/10/09 02:01:01;;;;;;;8.02;3.10;;;12.10;99.90;;;;;;10062478;28;20103;-62
2022/10/09 02:05:54;;;;;;;3.95;2.78;;;12.10;99.90;;;;;;10063959;28;20033;-62
2022/10/09 02:10:47;;;;;;;6.00;2.80;;;12.20;99.90;;;;;;10068337;28;20015;-61
2022/10/09 02:15:53;;;;;;;5.75;3.28;;;12.10;99.90;;;;;;10062701;28;20025;-61
2022/10/09 02:20:49;;;;;;;4.63;2.65;;;12.00;99.90;;;;;;10063534;28;20464;-60
2022/10/09 02:25:40;;;;;;;7.25;2.80;;;12.00;99.90;;;;;;10070222;28;20124;-61
2022/10/09 02:30:46;;;;;;;4.57;2.88;;;11.80;99.90;;;;;;10063374;28;20104;-62
2022/10/09 02:35:38;;;;;;;9.23;3.05;;;11.80;99.90;;;;;;10062469;28;20084;-61
2022/10/09 02:40:28;;;;;;;5.70;2.35;;;11.70;99.90;;;;;;10062599;28;20033;-62
2022/10/09 02:45:19;;;;;;;5.53;3.00;;;11.80;99.90;;;;;;10061781;28;20075;-61
2022/10/09 02:50:09;;;;;;;4.82;2.53;;;11.70;99.90;;;;;;10065756;28;20025;-61
2022/10/09 02:55:00;;;;;;;5.45;3.05;;;11.70;99.90;;;;;;10061463;28;20025;-61
2022/10/09 02:59:51;;;;;;;5.05;3.15;;;11.70;99.90;;;;;;10061860;28;20452;-61
2022/10/09 03:04:41;;;;;;;8.00;3.63;;;11.60;99.90;;;;;;10068441;28;20037;-62
2022/10/09 03:09:32;;;;;;;6.15;3.00;;;11.60;99.90;;;;;;10059342;28;20589;-61
2022/10/09 03:14:22;;;;;;;8.73;3.35;;;11.60;99.90;;;;;;10060840;28;20546;-61
2022/10/09 03:19:13;;;;;;;4.82;3.30;;;11.70;99.90;;;;;;10071823;28;20029;-62
2022/10/09 03:24:04;;;;;;;8.82;3.28;;;11.60;99.90;;;;;;10060221;28;20379;-61
2022/10/09 03:28:55;;;;;;;4.97;3.28;;;11.40;99.90;;;;;;10061037;28;20478;-63
2022/10/09 03:33:45;;;;;;;6.55;2.83;;;11.40;99.90;;;;;;10065462;28;20025;-61
2022/10/09 03:38:36;;;;;;;9.73;4.45;;;11.40;99.90;;;;;;10060923;28;20033;-60
2022/10/09 03:43:27;;;;;;;6.43;3.47;;;11.40;99.90;;;;;;10059317;28;20057;-62
2022/10/09 03:48:18;;;;;;;5.03;3.08;;;11.30;99.90;;;;;;10065910;28;20164;-62
2022/10/09 03:53:11;;;;;;;7.03;3.30;;;11.40;99.90;;;;;;10059679;28;20112;-61
2022/10/09 03:58:02;;;;;;;4.85;2.95;;;11.30;99.90;;;;;;10059676;28;20044;-63
2022/10/09 04:02:53;;;;;;;2.85;2.30;;;11.30;99.90;;;;;;10062363;28;20029;-61
2022/10/09 04:07:44;;;;;;;6.57;3.50;;;11.30;99.90;;;;;;10060207;28;20037;-60
2022/10/09 04:12:34;;;;;;;6.28;2.65;;;11.20;99.90;;;;;;10060104;28;20017;-62
2022/10/09 04:17:25;;;;;;;5.07;3.10;;;11.10;99.90;;;;;;10065428;28;20354;-62
2022/10/09 04:22:16;;;;;;;4.40;2.90;;;11.10;99.90;;;;;;10059032;28;20030;-62
2022/10/09 04:27:07;;;;;;;7.07;2.85;;;11.20;99.90;;;;;;10058419;28;20038;-62
2022/10/09 04:31:57;;;;;;;6.97;4.82;;;11.00;99.90;;;;;;10065976;28;20030;-63
2022/10/09 04:36:48;;;;;;;7.72;4.72;;;10.90;99.90;;;;;;10057990;28;20057;-62
2022/10/09 04:41:38;;;;;;;5.10;2.55;;;10.80;99.90;;;;;;10058752;28;20045;-62
2022/10/09 04:46:29;;;;;;;4.72;2.30;;;10.80;99.90;;;;;;10066015;28;20037;-61
2022/10/09 04:51:20;;;;;;;7.70;3.75;;;10.80;99.90;;;;;;10057110;28;20034;-62
2022/10/09 04:56:18;;;;;;;4.72;2.65;;;10.80;99.90;;;;;;10060683;28;20064;-61
2022/10/09 05:01:18;;;;;;;5.82;3.05;;;10.70;99.90;;;;;;10055832;28;20462;-62
2022/10/09 05:06:10;;;;;;;6.38;2.90;;;10.70;99.90;;;;;;10054131;28;20052;-61
2022/10/09 05:11:11;;;;;;;5.47;2.50;;;10.70;99.90;;;;;;10054539;28;20669;-62
2022/10/09 05:16:03;;;;;;;4.50;2.60;;;10.70;99.90;;;;;;10057372;28;20104;-61
2022/10/09 05:20:54;;;;;;;4.20;2.42;;;10.70;99.90;;;;;;10056601;28;20029;-61
2022/10/09 05:25:57;;;;;;;5.45;3.35;;;10.70;99.90;;;;;;10056788;28;20037;-61
2022/10/09 05:30:48;;;;;;;4.85;3.13;;;10.60;99.90;;;;;;10056850;28;20114;-61
2022/10/09 05:35:38;;;;;;;4.20;3.45;;;10.70;99.90;;;;;;10055562;28;20319;-61
2022/10/09 05:40:29;;;;;;;4.72;2.90;;;10.60;99.90;;;;;;10055852;28;20317;-62
2022/10/09 05:45:19;;;;;;;5.40;2.90;;;10.60;99.90;;;;;;10044517;28;20454;-61
2022/10/09 05:50:10;;;;;;;5.43;3.47;;;10.60;99.90;;;;;;10054817;28;20329;-63
2022/10/09 05:55:01;;;;;;;4.97;3.70;;;10.60;99.90;;;;;;10055854;28;20438;-63
2022/10/09 05:59:51;;;;;;;5.95;2.65;;;10.50;99.90;;;;;;10055805;28;20025;-64
2022/10/09 06:04:42;;;;;;;6.68;3.25;;;10.60;99.90;;;;;;10055647;28;20041;-63
2022/10/09 06:09:32;;;;;;;6.85;3.28;;;10.60;99.90;;;;;;10057520;28;20026;-65
2022/10/09 06:14:23;;;;;;;6.72;3.33;;;10.60;99.90;;;;;;10063487;28;20523;-64
2022/10/09 06:19:16;;;;;;;5.68;3.35;;;10.60;99.90;;;;;;10063347;28;20105;-67
2022/10/09 06:24:09;;;;;;;8.35;3.25;;;10.60;99.90;;;;;;10062651;28;21284;-65
2022/10/09 06:29:01;;;;;;;4.35;2.67;;;10.60;99.90;;;;;;10063902;28;20120;-64
2022/10/09 06:33:52;;;;;;;6.85;3.45;;;10.50;99.90;;;;;;10062363;28;20035;-65
2022/10/09 06:38:43;;;;;;;4.45;2.72;;;10.50;99.90;;;;;;10062347;28;20022;-63
2022/10/09 06:43:34;;;;;;;4.80;2.60;;;10.60;99.90;;;;;;10062118;28;20060;-64
2022/10/09 06:48:25;;;;;;;9.73;3.95;;;10.70;99.90;;;;;;10062426;28;20108;-64
2022/10/09 06:53:15;;;;;;;3.42;2.67;;;10.70;99.90;;;;;;10061523;28;20456;-64
2022/10/09 06:58:06;;;;;;;5.25;2.90;;;10.70;99.90;;;;;;10061571;28;20431;-63
2022/10/09 07:02:57;;;;;;;4.47;2.85;;;10.60;99.90;;;;;;10062084;28;20032;-65
2022/10/09 07:07:47;;;;;;;5.05;2.75;;;10.70;99.90;;;;;;10061920;28;20069;-64
2022/10/09 07:12:38;;;;;;;4.38;2.78;;;10.70;99.90;;;;;;10062779;28;20021;-63
2022/10/09 07:17:28;;;;;;;3.33;2.72;;;10.70;99.90;;;;;;10061406;28;20029;-62
2022/10/09 07:22:19;;;;;;;7.80;2.90;;;10.80;99.90;;;;;;10059948;28;20022;-63
2022/10/09 07:27:09;;;;;;;5.30;2.55;;;11.00;99.90;;;;;;10059823;28;20401;-62
2022/10/09 07:32:00;;;;;;;5.95;3.75;;;11.00;99.90;;;;;;10061141;28;20037;-61
2022/10/09 07:36:51;;;;;;;6.50;2.97;;;11.20;99.90;;;;;;10060480;28;20029;-62
2022/10/09 07:41:42;;;;;;;5.53;3.13;;;11.30;99.90;;;;;;10060341;28;20384;-63
2022/10/09 07:46:33;;;;;;;6.20;2.42;;;11.50;99.90;;;;;;10059491;28;20029;-61
2022/10/09 07:51:26;;;;;;;4.38;2.88;;;11.50;99.90;;;;;;10060683;28;20451;-63
2022/10/09 07:56:26;;;;;;;5.63;2.50;;;11.60;99.90;;;;;;10060318;28;20033;-62
2022/10/09 08:01:18;;;;;;;9.38;3.58;;;11.80;99.90;;;;;;10059714;28;20503;-61
2022/10/09 08:06:09;;;;;;;4.75;2.72;;;12.00;99.90;;;;;;10059542;28;20037;-61
2022/10/09 08:11:06;;;;;;;4.95;2.53;;;12.10;99.90;;;;;;10061611;28;20014;-62
2022/10/09 08:15:57;;;;;;;9.68;4.78;;;12.20;99.90;;;;;;10060078;28;20034;-64
2022/10/09 08:20:59;;;;;;;3.53;2.25;;;12.30;99.90;;;;;;10058563;28;20027;-63
2022/10/09 08:25:49;;;;;;;13.93;3.45;;;12.50;99.90;;;;;;10059001;28;20276;-61
2022/10/09 08:30:40;;;;;;;4.60;2.45;;;12.50;99.90;;;;;;10059066;28;20599;-61
2022/10/09 08:35:31;;;;;;;5.07;3.00;;;12.60;99.90;;;;;;10059192;28;20451;-65
2022/10/09 08:40:44;;;;;;;3.85;2.15;;;12.60;99.90;;;;;;10057917;28;20100;-61
2022/10/09 08:45:40;;;;;;;3.15;2.10;;;12.90;99.90;;;;;;10058131;28;20091;-60
2022/10/09 08:50:43;;;;;;;5.15;2.85;;;12.90;99.90;;;;;;10057775;28;20481;-61
2022/10/09 08:56:02;;;;;;;6.18;3.53;;;13.10;99.90;;;;;;10056458;28;20029;-62
2022/10/09 09:01:16;;;;;;;9.02;4.30;;;13.30;99.90;;;;;;10054695;28;20079;-62
2022/10/09 09:06:16;;;;;;;7.30;3.75;;;13.30;99.90;;;;;;10057441;28;20504;-62
2022/10/09 09:11:10;;;;;;;8.10;3.60;;;13.30;99.90;;;;;;10059393;28;20028;-62
2022/10/09 09:16:31;;;;;;;6.50;2.45;;;13.60;99.90;;;;;;10057196;28;20104;-61
2022/10/09 09:21:36;;;;;;;3.53;1.70;;;13.70;99.90;;;;;;10056429;28;20041;-62
2022/10/09 09:26:27;;;;;;;5.50;2.80;;;13.90;99.90;;;;;;10057154;28;20513;-61
2022/10/09 09:31:30;;;;;;;6.60;3.10;;;14.00;99.90;;;;;;10055717;28;20026;-63
2022/10/09 09:36:30;;;;;;;4.35;2.47;;;14.00;99.90;;;;;;10057324;28;20474;-63
2022/10/09 09:41:20;;;;;;;4.38;2.30;;;14.20;99.90;;;;;;10051049;28;20099;-61
2022/10/09 09:46:17;;;;;;;11.52;3.72;;;14.30;99.90;;;;;;10059770;28;20411;-61
2022/10/09 09:51:18;;;;;;;4.50;2.17;;;14.40;99.90;;;;;;10052595;28;20017;-61
2022/10/09 09:56:09;;;;;;;4.35;2.00;;;14.60;99.90;;;;;;10053189;28;20491;-60
2022/10/09 10:01:02;;;;;;;5.28;2.80;;;14.70;99.90;;;;;;10064771;28;20033;-62
2022/10/09 10:05:53;;;;;;;2.55;1.75;;;14.90;99.90;;;;;;10069591;28;20040;-61
2022/10/09 10:10:46;;;;;;;4.22;2.13;;;14.80;99.90;;;;;;10064154;28;20276;-62
2022/10/09 10:15:37;;;;;;;2.47;1.50;;;15.00;99.90;;;;;;10064268;28;20487;-61
2022/10/09 10:20:30;;;;;;;2.05;1.83;;;15.20;99.90;;;;;;10071243;28;20033;-62
2022/10/09 10:25:26;;;;;;;3.28;1.70;;;15.20;99.90;;;;;;10063684;28;20404;-62
2022/10/09 10:30:18;;;;;;;3.38;1.40;;;15.40;99.90;;;;;;10063788;28;20025;-62
2022/10/09 10:35:17;;;;;;;7.40;1.55;;;15.50;99.90;;;;;;10053645;28;20061;-61
2022/10/09 10:40:31;;;;;;;3.15;2.38;;;15.50;99.90;;;;;;10062598;28;20033;-61
2022/10/09 10:45:32;;;;;;;5.15;2.25;;;15.70;99.90;;;;;;10059187;28;20064;-61
2022/10/09 10:50:28;;;;;;;6.28;2.22;;;15.80;99.90;;;;;;10067141;28;20543;-60
2022/10/09 10:55:57;;;;;;;1.90;1.60;;;15.90;99.90;;;;;;10061887;28;20042;-63
2022/10/09 11:01:15;;;;;;;3.42;1.55;;;16.00;99.90;;;;;;10059053;28;20030;-62
2022/10/09 11:06:20;;;;;;;4.20;1.63;;;16.10;99.90;;;;;;10054211;28;20409;-62
2022/10/09 11:11:20;;;;;;;2.20;1.65;;;16.20;99.90;;;;;;10061003;28;20040;-64
2022/10/09 11:16:37;;;;;;;3.35;1.65;;;16.30;99.90;;;;;;10062769;28;20433;-62
2022/10/09 11:21:51;;;;;;;1.77;1.13;;;16.40;99.90;;;;;;10061195;28;20057;-60
2022/10/09 11:26:59;;;;;;;3.38;1.92;;;16.50;99.90;;;;;;10061158;28;20514;-65
2022/10/09 11:32:00;;;;;;;5.55;1.70;;;16.50;99.90;;;;;;10054290;28;20025;-62
2022/10/09 11:36:52;;;;;;;4.55;1.50;;;16.70;99.90;;;;;;10059777;28;20025;-60
2022/10/09 11:41:46;;;;;;;3.90;1.63;;;16.70;99.90;;;;;;10058284;28;20530;-63
2022/10/09 11:46:46;;;;;;;2.92;1.73;;;16.90;99.90;;;;;;10068160;28;20041;-61
2022/10/09 11:51:46;;;;;;;2.70;1.48;;;17.10;99.90;;;;;;10060105;28;20026;-62
2022/10/09 11:56:37;;;;;;;3.90;1.90;;;17.20;99.90;;;;;;10059891;28;20029;-61
2022/10/09 12:01:33;;;;;;;4.00;1.85;;;17.30;99.90;;;;;;10061034;28;20493;-62
2022/10/09 12:06:24;;;;;;;2.75;2.28;;;17.40;99.90;;;;;;10057742;28;20279;-61
2022/10/09 12:11:17;;;;;;;4.55;2.42;;;17.70;99.60;;;;;;10055640;28;20316;-64
2022/10/09 12:16:29;;;;;;;3.63;1.90;;;17.90;99.40;;;;;;10059473;28;20021;-62
2022/10/09 12:21:28;;;;;;;5.75;2.63;;;18.20;99.20;;;;;;10057298;28;20017;-62
2022/10/09 12:26:22;;;;;;;4.35;2.20;;;18.50;98.90;;;;;;10059104;28;20429;-64
2022/10/09 12:31:36;;;;;;;3.58;1.52;;;18.70;98.90;;;;;;10058766;28;20025;-62
2022/10/09 12:36:30;;;;;;;4.85;1.80;;;19.10;98.70;;;;;;10054709;28;20083;-60
2022/10/09 12:41:30;;;;;;;3.25;1.63;;;19.40;98.80;;;;;;10057663;28;20499;-60
2022/10/09 12:46:36;;;;;;;4.25;1.50;;;19.90;98.60;;;;;;10057967;28;20033;-62
2022/10/09 12:51:30;;;;;;;3.95;1.63;;;19.90;98.40;;;;;;10058273;28;20029;-61
2022/10/09 12:56:27;;;;;;;6.13;2.75;;;20.30;98.60;;;;;;10057762;28;20053;-62
2022/10/09 13:01:19;;;;;;;3.15;1.90;;;20.90;98.50;;;;;;10057323;28;20022;-61
2022/10/09 13:06:24;;;;;;;6.57;2.03;;;20.70;98.50;;;;;;10057619;28;20381;-61
2022/10/09 13:11:21;;;;;;;5.68;1.80;;;21.50;98.20;;;;;;10057683;28;20025;-61
2022/10/09 13:16:12;;;;;;;2.35;1.48;;;21.70;98.30;;;;;;10057289;28;20061;-62
2022/10/09 13:21:23;;;;;;;3.47;1.65;;;22.10;98.30;;;;;;10054679;28;20411;-60
2022/10/09 13:26:27;;;;;;;4.30;1.58;;;22.50;97.70;;;;;;10057021;28;20041;-62
2022/10/09 13:31:17;;;;;;;4.43;1.27;;;22.70;97.30;;;;;;10057935;28;20037;-64
2022/10/09 13:36:19;;;;;;;5.50;1.80;;;23.20;97.00;;;;;;10089541;28;20030;-63
2022/10/09 13:41:22;;;;;;;4.13;1.48;;;23.70;96.30;;;;;;10056350;28;20116;-62
2022/10/09 13:46:13;;;;;;;4.28;2.00;;;24.30;95.40;;;;;;10046844;28;20107;-62
2022/10/09 13:51:04;;;;;;;5.43;1.50;;;24.70;94.80;;;;;;10057083;28;20107;-62
2022/10/09 13:55:55;;;;;;;2.27;1.30;;;24.90;93.70;;;;;;10056302;28;20044;-61
2022/10/09 14:00:46;;;;;;;3.90;1.80;;;24.90;93.20;;;;;;10056408;28;20287;-62
2022/10/09 14:05:37;;;;;;;4.00;1.48;;;25.10;92.40;;;;;;10056314;28;20037;-60
2022/10/09 14:10:28;;;;;;;6.72;2.05;;;25.90;91.20;;;;;;10056241;28;20514;-62
2022/10/09 14:15:19;;;;;;;4.47;1.80;;;26.50;90.20;;;;;;10056317;28;20026;-61
2022/10/09 14:20:09;;;;;;;1.67;1.13;;;26.90;88.00;;;;;;10056087;28;20030;-62
2022/10/09 14:25:00;;;;;;;2.03;1.13;;;27.90;84.90;;;;;;10056294;28;20044;-61
2022/10/09 14:29:51;;;;;;;2.53;1.63;;;29.00;81.80;;;;;;10054726;28;20029;-62
2022/10/09 14:34:41;;;;;;;4.20;1.80;;;30.10;77.60;;;;;;10062994;28;20025;-60
2022/10/09 14:39:32;;;;;;;2.92;1.17;;;30.80;73.80;;;;;;10062910;28;20037;-62
2022/10/09 14:44:23;;;;;;;6.15;2.65;;;30.60;71.60;;;;;;10061611;28;20041;-60
2022/10/09 14:49:14;;;;;;;2.10;1.90;;;31.10;68.80;;;;;;10061808;28;20032;-60
2022/10/09 14:54:06;;;;;;;4.00;1.58;;;31.10;66.90;;;;;;10060655;28;20017;-62
2022/10/09 14:58:59;;;;;;;3.38;1.50;;;31.60;64.90;;;;;;10061718;28;20037;-62
2022/10/09 15:03:50;;;;;;;;;;;31.00;64.30;;;;;;10059316;28;20018;-62
2022/10/09 15:08:42;;;;;;;4.53;1.45;;;31.20;63.10;;;;;;10065484;28;19912;-60
2022/10/09 15:13:34;;;;;;;8.15;2.25;;;31.60;63.00;;;;;;10061308;28;20560;-62
2022/10/09 15:18:26;;;;;;;4.53;2.22;;;31.80;61.60;;;;;;10061809;28;20033;-62
2022/10/09 15:23:16;;;;;;;4.88;2.70;;;31.80;60.60;;;;;;10092829;28;20033;-58
2022/10/09 15:28:07;;;;;;;5.20;1.70;;;31.90;59.60;;;;;;10059328;28;20045;-59
2022/10/09 15:33:01;;;;;;;4.80;2.10;;;31.70;59.00;;;;;;10059594;28;20029;-58
2022/10/09 15:37:52;;;;;;;4.35;2.90;;;31.70;58.20;;;;;;10057605;28;20006;-59
2022/10/09 15:42:45;;;;;;;3.30;1.85;;;31.40;57.80;;;;;;10055766;28;20147;-59
2022/10/09 15:47:36;;;;;;;5.07;1.92;;;31.40;57.20;;;;;;10057672;28;20172;-58
2022/10/09 15:52:26;;;;;;;2.38;1.30;;;30.90;57.30;;;;;;10060031;28;20101;-58
2022/10/09 15:57:17;;;;;;;7.05;2.60;;;30.80;57.00;;;;;;10059932;28;20497;-59
2022/10/09 16:02:09;;;;;;;3.47;1.40;;;30.40;56.90;;;;;;10059499;28;20021;-58
2022/10/09 16:07:00;;;;;;;2.40;1.80;;;29.80;57.40;;;;;;10060635;28;20038;-60
2022/10/09 16:11:51;;;;;;;4.13;1.88;;;25.50;60.80;;;;;;10058722;28;20096;-60
2022/10/09 16:16:41;;;;;;;3.65;1.70;;;23.00;64.30;;;;;;10059004;28;20034;-60
2022/10/09 16:21:32;;;;;;;7.63;1.52;;;21.70;65.40;;;;;;10059107;28;20037;-60
2022/10/09 16:26:23;;;;;;;5.63;1.80;;;21.30;65.80;;;;;;10058629;28;20041;-57
2022/10/09 16:31:25;;;;;;;3.95;2.08;;;20.80;66.20;;;;;;10057747;28;20022;-58
2022/10/09 16:36:17;;;;;;;2.50;1.73;;;20.50;66.60;;;;;;10058182;28;20029;-57
2022/10/09 16:41:09;;;;;;;3.45;2.10;;;20.20;67.90;;;;;;10057493;28;20153;-60
2022/10/09 16:46:12;;;;;;;2.75;1.65;;;20.00;67.80;;;;;;10058504;28;20033;-63
2022/10/09 16:51:13;;;;;;;3.67;2.13;;;19.90;68.60;;;;;;10079899;28;20221;-61
2022/10/09 16:56:12;;;;;;;8.52;2.42;;;19.70;69.20;;;;;;10091195;28;20053;-74
2022/10/09 17:01:04;;;;;;;3.55;1.98;;;19.50;69.60;;;;;;10056091;28;20498;-73
2022/10/09 17:05:58;;;;;;;4.03;2.00;;;19.40;70.20;;;;;;10058580;28;20354;-72
2022/10/09 17:10:52;;;;;;;4.73;2.53;;;19.30;70.80;;;;;;10064632;28;20052;-75
2022/10/09 17:15:43;;;;;;;6.63;2.20;;;19.30;71.20;;;;;;10068956;28;20103;-70
2022/10/09 17:20:36;;;;;;;4.85;2.35;;;19.10;71.60;;;;;;10060625;28;20503;-71
2022/10/09 17:25:27;;;;;;;4.28;1.98;;;19.10;72.20;;;;;;10060136;28;20045;-70
2022/10/09 17:30:18;;;;;;;3.35;1.60;;;19.00;72.60;;;;;;10057936;28;20053;-69
2022/10/09 17:35:10;;;;;;;3.35;1.50;;;18.90;73.20;;;;;;10058179;28;20484;-61
2022/10/09 17:40:01;;;;;;;5.63;2.42;;;18.90;73.80;;;;;;10054660;28;20029;-68
2022/10/09 17:44:52;;;;;;;4.75;1.77;;;18.80;74.00;;;;;;10056164;28;20049;-70
2022/10/09 17:49:43;;;;;;;4.07;2.55;;;18.60;74.70;;;;;;10056083;28;20026;-72
2022/10/09 17:54:35;;;;;;;2.92;1.70;;;18.60;75.30;;;;;;10052155;28;20026;-70
2022/10/09 17:59:26;;;;;;;5.75;2.22;;;18.60;75.80;;;;;;10064183;28;20072;-68
2022/10/09 18:04:16;;;;;;;4.75;2.08;;;18.50;76.10;;;;;;10054150;28;20042;-72
2022/10/09 18:09:07;;;;;;;3.78;2.25;;;18.30;76.70;;;;;;10059176;28;20033;-69
2022/10/09 18:13:58;;;;;;;5.05;2.28;;;18.20;77.10;;;;;;10065146;28;20029;-69
2022/10/09 18:18:49;;;;;;;6.60;2.28;;;18.20;77.60;;;;;;10063190;28;20033;-69
2022/10/09 18:23:39;;;;;;;3.05;1.75;;;18.10;78.30;;;;;;10064611;28;20079;-69
2022/10/09 18:28:30;;;;;;;5.45;2.55;;;18.00;78.80;;;;;;10065270;28;20041;-70
2022/10/09 18:33:21;;;;;;;3.55;2.03;;;18.00;79.60;;;;;;10066128;28;20086;-70
2022/10/09 18:38:12;;;;;;;2.80;2.00;;;17.90;80.10;;;;;;10061868;28;20029;-72
2022/10/09 18:43:02;;;;;;;3.08;1.80;;;17.80;81.00;;;;;;10060633;28;20041;-68
2022/10/09 18:47:53;;;;;;;4.25;1.95;;;17.70;81.80;;;;;;10062638;28;20048;-74
2022/10/09 18:52:44;;;;;;;2.72;2.03;;;17.90;82.40;;;;;;10061879;28;20513;-71
2022/10/09 18:57:37;;;;;;;6.13;2.42;;;17.70;83.00;;;;;;10062021;28;20031;-75
2022/10/09 19:02:27;;;;;;;4.35;2.53;;;17.60;83.60;;;;;;10066513;28;20198;-74
2022/10/09 19:07:18;;;;;;;5.00;2.08;;;17.50;84.30;;;;;;10058485;28;20173;-73
2022/10/09 19:12:09;;;;;;;7.63;2.15;;;17.50;85.10;;;;;;10058769;28;20014;-74
2022/10/09 19:16:59;;;;;;;2.03;1.55;;;17.50;85.70;;;;;;10060280;28;20037;-73
2022/10/09 19:21:51;;;;;;;5.22;2.50;;;17.40;86.30;;;;;;10060077;28;20030;-74
2022/10/09 19:26:41;;;;;;;2.97;1.83;;;17.40;87.10;;;;;;10060087;28;20199;-74
2022/10/09 19:31:34;;;;;;;3.67;2.03;;;17.30;87.80;;;;;;10063035;28;20227;-75
2022/10/09 19:36:25;;;;;;;3.83;2.50;;;17.20;88.70;;;;;;10059634;28;20029;-73
2022/10/09 19:41:16;;;;;;;7.65;2.83;;;17.10;89.50;;;;;;10061388;28;20400;-75
2022/10/09 19:46:19;;;;;;;4.95;2.33;;;17.10;90.10;;;;;;10077525;28;20040;-69
2022/10/09 19:51:13;;;;;;;5.25;2.70;;;17.00;90.40;;;;;;10057795;28;20032;-68
2022/10/09 19:56:19;;;;;;;6.32;2.90;;;17.00;90.80;;;;;;10051625;28;20060;-67
2022/10/09 20:01:11;;;;;;;5.65;3.05;;;16.90;91.30;;;;;;10051586;28;20284;-72
2022/10/09 20:06:02;;;;;;;9.05;3.17;;;16.90;91.50;;;;;;10058600;28;20466;-69
2022/10/09 20:10:58;;;;;;;3.60;2.42;;;16.80;91.70;;;;;;10058851;28;20025;-70
2022/10/09 20:15:50;;;;;;;2.42;2.22;;;16.80;92.10;;;;;;10065971;28;20025;-71
2022/10/09 20:20:46;;;;;;;6.28;2.30;;;16.70;92.50;;;;;;10062074;28;20120;-71
2022/10/09 20:25:36;;;;;;;;;;;16.60;92.70;;;;;;10061853;28;20065;-69
2022/10/09 20:30:27;;;;;;;4.70;2.75;;;16.50;93.00;;;;;;10062644;28;19909;-71
2022/10/09 20:35:18;;;;;;;5.43;2.30;;;16.50;93.00;;;;;;10058832;28;20037;-70
2022/10/09 20:40:08;;;;;;;4.22;2.10;;;16.40;93.50;;;;;;10056025;28;20014;-72
2022/10/09 20:44:59;;;;;;;3.75;2.53;;;16.40;93.60;;;;;;10041981;28;20041;-73
2022/10/09 20:49:50;;;;;;;5.03;2.33;;;16.40;94.00;;;;;;10052901;28;20028;-73
2022/10/09 20:54:40;;;;;;;3.63;2.15;;;16.30;94.30;;;;;;10053025;28;20033;-73
2022/10/09 20:59:31;;;;;;;4.72;2.42;;;16.30;94.50;;;;;;10051343;28;20475;-71
2022/10/09 21:04:22;;;;;;;7.63;2.42;;;16.20;94.80;;;;;;10078542;28;20467;-71
2022/10/09 21:09:13;;;;;;;9.80;3.28;;;16.20;95.00;;;;;;10050993;28;20025;-70
2022/10/09 21:14:03;;;;;;;3.80;2.20;;;16.20;95.40;;;;;;10050770;28;20351;-71
2022/10/09 21:18:57;;;;;;;4.55;2.40;;;16.20;95.50;;;;;;10052892;28;20018;-70
2022/10/09 21:23:50;;;;;;;4.75;2.50;;;16.20;95.80;;;;;;10052204;28;20076;-70
2022/10/09 21:28:47;;;;;;;7.90;2.40;;;16.10;96.00;;;;;;10050343;28;20037;-74
2022/10/09 21:33:38;;;;;;;6.72;2.70;;;16.20;96.30;;;;;;10080052;28;20329;-73
2022/10/09 21:38:28;;;;;;;3.88;2.70;;;16.20;96.50;;;;;;10052946;28;20033;-75
2022/10/09 21:43:19;;;;;;;3.40;2.35;;;16.20;96.70;;;;;;10053484;28;20151;-76
2022/10/09 21:48:16;;;;;;;4.70;2.47;;;16.10;97.00;;;;;;10052403;28;20492;-77
2022/10/09 21:53:07;;;;;;;5.40;2.58;;;16.00;97.30;;;;;;10038271;28;20013;-71
2022/10/09 21:57:57;;;;;;;6.88;2.83;;;16.00;97.40;;;;;;10062239;28;20033;-70
2022/10/09 22:02:48;;;;;;;4.25;3.08;;;15.90;97.70;;;;;;10063056;28;20043;-70
2022/10/09 22:07:38;;;;;;;4.40;2.85;;;15.90;97.80;;;;;;10064658;28;20385;-71
2022/10/09 22:12:29;;;;;;;6.25;3.33;;;16.00;97.90;;;;;;10064191;28;20013;-71
2022/10/09 22:17:20;;;;;;;5.25;2.80;;;15.80;97.90;;;;;;10059551;28;20057;-71
2022/10/09 22:22:10;;;;;;;5.93;3.20;;;16.00;98.20;;;;;;10057462;28;20519;-73
2022/10/09 22:27:01;;;;;;;4.13;2.60;;;15.90;98.20;;;;;;10058277;28;20235;-71
2022/10/09 22:31:52;;;;;;;5.15;3.15;;;15.70;98.60;;;;;;10057253;28;20021;-71
2022/10/09 22:36:46;;;;;;;6.50;3.25;;;15.60;98.80;;;;;;10058283;28;20049;-68
2022/10/09 22:41:37;;;;;;;5.50;2.80;;;15.50;99.00;;;;;;10055867;28;20436;-70
2022/10/09 22:46:32;;;;;;;2.83;2.40;;;15.50;99.10;;;;;;10057992;28;20033;-71
2022/10/09 22:51:24;;;;;;;5.00;3.10;;;15.50;99.20;;;;;;10054408;28;20281;-69
2022/10/09 22:56:21;;;;;;;8.20;3.78;;;15.40;99.30;;;;;;10064523;28;20037;-74
2022/10/09 23:01:18;;;;;;;3.67;2.33;;;15.40;99.50;;;;;;10055798;28;20527;-71
2022/10/09 23:06:14;;;;;;;4.28;2.38;;;15.40;99.60;;;;;;10060830;28;20037;-71
2022/10/09 23:11:05;;;;;;;4.00;2.72;;;15.30;99.70;;;;;;10061497;28;20076;-71
2022/10/09 23:15:59;;;;;;;5.78;3.35;;;15.30;99.90;;;;;;10058854;28;20021;-73
2022/10/09 23:20:49;;;;;;;6.93;3.30;;;15.30;99.90;;;;;;10056283;28;20057;-72
2022/10/09 23:25:40;;;;;;;5.22;3.03;;;15.30;99.90;;;;;;10054948;28;20033;-72
2022/10/09 23:30:31;;;;;;;3.90;2.88;;;15.20;99.90;;;;;;10055632;28;20029;-70
2022/10/09 23:35:22;;;;;;;7.20;3.00;;;15.10;99.90;;;;;;10056522;28;20412;-74
2022/10/09 23:40:13;;;;;;;6.07;3.15;;;15.10;99.90;;;;;;10055257;28;20058;-72
2022/10/09 23:45:04;;;;;;;5.93;2.30;;;15.10;99.90;;;;;;10055376;28;20041;-72
2022/10/09 23:49:55;;;;;;;3.40;2.78;;;15.00;99.90;;;;;;10055010;28;20041;-70
2022/10/09 23:54:46;;;;;;;5.55;2.58;;;15.10;99.90;;;;;;10053605;28;20033;-69
2022/10/09 23:59:37;;;;;;;4.88;3.22;;;15.00;99.90;;;;;;10054162;28;20392;-72
